Time;durP1;ratioP1;P1;durP2;ratioP2;P2;SDS_P1;SDS_P2;PMS_P1;PMS_P2;Temp;Humidity;BMP_temperature;BMP_pressure;BME280_temperature;BME280_humidity;BME280_pressure;Samples;Min_cycle;Max_cycle;Signal;HPM_P1;HPM_P2
2022/07/23 00:00:27;;;;;;;;;;;;;;;25.64;65.73;100008.53;5009351;28;20393;-68
2022/07/23 00:02:53;;;;;;;;;;;;;;;25.59;65.29;100001.81;5013611;28;19970;-68
2022/07/23 00:05:18;;;;;;;;;;;;;;;25.47;65.50;100005.72;5014136;28;19946;-68
2022/07/23 00:07:43;;;;;;;;;;;;;;;25.38;65.60;100003.81;5014266;28;19961;-68
2022/07/23 00:10:08;;;;;;;;;;;;;;;25.34;66.42;100000.50;5013999;28;19940;-68
2022/07/23 00:12:34;;;;;;;;;;;;;;;25.32;66.13;99999.78;5020588;28;19954;-68
2022/07/23 00:14:59;;;;;;;;;;;;;;;25.33;66.99;100000.63;5033928;28;19989;-68
2022/07/23 00:17:24;;;;;;;;;;;;;;;25.30;68.00;100009.97;5024649;28;19950;-69
2022/07/23 00:19:50;;;;;;;;;;;;;;;25.28;67.53;100011.97;5030712;28;20373;-69
2022/07/23 00:22:15;;;;;;;;;;;;;;;25.25;65.78;100012.25;5033820;28;19974;-69
2022/07/23 00:24:40;;;;;;;;;;;;;;;25.29;66.59;100020.97;5015836;28;19955;-69
2022/07/23 00:27:05;;;;;;;;;;;;;;;25.29;66.57;100032.75;5026133;28;20293;-69
2022/07/23 00:29:31;;;;;;;;;;;;;;;25.30;66.23;100028.16;5023397;28;20016;-69
2022/07/23 00:31:56;;;;;;;;;;;;;;;25.32;67.78;100016.13;5033839;28;19935;-69
2022/07/23 00:34:21;;;;;;;;;;;;;;;25.29;69.96;100000.06;5030714;28;19928;-69
2022/07/23 00:36:47;;;;;;;;;;;;;;;25.22;70.92;99985.28;5030610;28;20380;-69
2022/07/23 00:39:12;;;;;;;;;;;;;;;25.09;73.49;99971.09;5033326;28;19931;-69
2022/07/23 00:41:37;;;;;;;;;;;;;;;24.97;74.16;99972.25;5033754;28;19932;-69
2022/07/23 00:44:15;;;;;;;;;;;;;;;24.88;75.73;99967.66;5033272;28;19968;-69
2022/07/23 00:46:45;;;;;;;;;;;;;;;24.80;75.54;99970.22;5015412;28;19955;-69
2022/07/23 00:49:10;;;;;;;;;;;;;;;24.75;75.84;99977.94;5032011;28;19934;-69
2022/07/23 00:51:35;;;;;;;;;;;;;;;24.71;72.02;99976.53;5031314;28;19946;-69
2022/07/23 00:54:00;;;;;;;;;;;;;;;24.72;72.74;99982.81;5013756;28;20024;-69
2022/07/23 00:56:26;;;;;;;;;;;;;;;24.71;74.04;99998.28;5013504;28;20305;-69
2022/07/23 00:58:52;;;;;;;;;;;;;;;24.71;73.67;100003.72;5032548;28;19974;-69
2022/07/23 01:01:17;;;;;;;;;;;;;;;24.70;74.79;100002.00;5033129;28;19929;-69
2022/07/23 01:03:42;;;;;;;;;;;;;;;24.63;74.33;99989.91;5033184;28;19929;-69
2022/07/23 01:06:08;;;;;;;;;;;;;;;24.57;74.52;99995.91;5032619;28;20410;-69
2022/07/23 01:08:33;;;;;;;;;;;;;;;24.46;73.94;99987.88;5032983;28;20365;-69
2022/07/23 01:10:58;;;;;;;;;;;;;;;24.33;74.08;99988.09;5032979;28;19957;-69
2022/07/23 01:13:23;;;;;;;;;;;;;;;24.28;74.81;99967.78;5033018;28;19934;-69
2022/07/23 01:15:49;;;;;;;;;;;;;;;24.15;75.85;99959.00;5032809;28;19965;-69
2022/07/23 01:18:14;;;;;;;;;;;;;;;23.99;76.11;99967.63;5032863;28;19969;-68
2022/07/23 01:20:39;;;;;;;;;;;;;;;23.86;74.71;99956.09;5032637;28;20402;-69
2022/07/23 01:23:05;;;;;;;;;;;;;;;23.74;75.73;99957.16;5032649;28;19921;-69
2022/07/23 01:25:30;;;;;;;;;;;;;;;23.63;77.02;99951.81;5021634;28;20050;-68
2022/07/23 01:27:55;;;;;;;;;;;;;;;23.58;73.74;99962.22;5011801;28;19945;-68
2022/07/23 01:30:20;;;;;;;;;;;;;;;23.60;74.38;99965.66;5028016;28;19935;-68
2022/07/23 01:32:46;;;;;;;;;;;;;;;23.63;75.03;99980.81;5031545;28;20452;-68
2022/07/23 01:35:11;;;;;;;;;;;;;;;23.61;76.71;99975.53;5031247;28;19930;-68
2022/07/23 01:37:37;;;;;;;;;;;;;;;23.54;77.08;99981.63;5026491;28;20046;-69
2022/07/23 01:40:03;;;;;;;;;;;;;;;23.44;77.62;99982.41;5010724;28;19934;-68
2022/07/23 01:42:29;;;;;;;;;;;;;;;23.36;78.70;99974.06;5010739;28;19941;-68
2022/07/23 01:44:54;;;;;;;;;;;;;;;23.28;79.61;99979.28;5010211;28;19956;-68
2022/07/23 01:47:19;;;;;;;;;;;;;;;23.20;80.59;99978.19;5011205;28;20265;-68
2022/07/23 01:49:45;;;;;;;;;;;;;;;23.18;81.62;99981.03;5012243;28;19929;-68
2022/07/23 01:52:10;;;;;;;;;;;;;;;23.20;79.24;99989.91;5011001;28;19931;-68
2022/07/23 01:54:36;;;;;;;;;;;;;;;23.23;75.49;99989.66;5012152;28;19973;-69
2022/07/23 01:57:02;;;;;;;;;;;;;;;23.28;71.71;99990.16;5012503;28;19932;-68
2022/07/23 01:59:28;;;;;;;;;;;;;;;23.39;72.62;99987.38;5021355;28;19994;-68
2022/07/23 02:01:53;;;;;;;;;;;;;;;23.41;75.31;99982.69;5031829;28;19929;-69
2022/07/23 02:04:19;;;;;;;;;;;;;;;23.36;76.22;99979.50;5031961;28;19951;-69
2022/07/23 02:06:45;;;;;;;;;;;;;;;23.28;77.83;99984.72;5016453;28;20040;-69
2022/07/23 02:09:10;;;;;;;;;;;;;;;23.16;77.56;99982.16;5012274;28;20033;-68
2022/07/23 02:11:35;;;;;;;;;;;;;;;23.06;76.27;99975.78;5011907;28;20275;-69
2022/07/23 02:14:00;;;;;;;;;;;;;;;23.03;74.12;99990.47;5012079;28;19930;-69
2022/07/23 02:16:26;;;;;;;;;;;;;;;23.06;74.61;99995.63;5012007;28;20381;-69
2022/07/23 02:18:51;;;;;;;;;;;;;;;23.17;75.15;100006.47;5012144;28;19944;-69
2022/07/23 02:21:16;;;;;;;;;;;;;;;23.23;76.19;100003.22;5011715;28;19930;-69
2022/07/23 02:23:41;;;;;;;;;;;;;;;23.28;77.17;100011.88;5025373;28;20510;-69
2022/07/23 02:26:07;;;;;;;;;;;;;;;23.34;77.35;100019.47;5012914;28;20301;-69
2022/07/23 02:28:32;;;;;;;;;;;;;;;23.39;74.37;100010.97;5012745;28;19938;-69
2022/07/23 02:30:57;;;;;;;;;;;;;;;23.45;73.03;100013.16;5012086;28;19959;-69
2022/07/23 02:33:23;;;;;;;;;;;;;;;23.55;71.35;100024.06;5029992;28;19931;-69
2022/07/23 02:35:48;;;;;;;;;;;;;;;23.61;70.71;100029.00;5014784;28;19940;-69
2022/07/23 02:38:13;;;;;;;;;;;;;;;23.66;69.98;100034.91;5020429;28;19935;-69
2022/07/23 02:40:38;;;;;;;;;;;;;;;23.70;71.88;100030.91;5030308;28;19923;-69
2022/07/23 02:43:04;;;;;;;;;;;;;;;23.72;70.74;100031.66;5031215;28;19945;-69
2022/07/23 02:45:29;;;;;;;;;;;;;;;23.73;70.93;100039.66;5031328;28;19950;-69
2022/07/23 02:47:54;;;;;;;;;;;;;;;23.75;72.05;100050.41;5031450;28;20387;-68
2022/07/23 02:50:19;;;;;;;;;;;;;;;23.74;73.12;100048.69;5031087;28;20024;-68
2022/07/23 02:52:45;;;;;;;;;;;;;;;23.73;73.95;100044.22;5031267;28;19938;-69
2022/07/23 02:55:10;;;;;;;;;;;;;;;23.69;73.72;100050.94;5031510;28;19932;-70
2022/07/23 02:57:36;;;;;;;;;;;;;;;23.63;72.86;100052.31;5031187;28;19934;-69
2022/07/23 03:00:01;;;;;;;;;;;;;;;23.60;71.35;100051.72;5031718;28;19934;-69
2022/07/23 03:02:26;;;;;;;;;;;;;;;23.62;71.47;100055.16;5035183;28;20040;-69
2022/07/23 03:04:52;;;;;;;;;;;;;;;23.59;70.93;100063.56;5035212;28;20427;-69
2022/07/23 03:07:17;;;;;;;;;;;;;;;23.58;71.88;100057.28;5035324;28;19948;-69
2022/07/23 03:09:43;;;;;;;;;;;;;;;23.60;71.34;100052.56;5035196;28;19940;-69
2022/07/23 03:12:08;;;;;;;;;;;;;;;23.60;71.43;100057.13;5035147;28;20027;-69
2022/07/23 03:14:33;;;;;;;;;;;;;;;23.58;71.66;100059.13;5035297;28;19929;-68
2022/07/23 03:17:00;;;;;;;;;;;;;;;23.56;71.47;100056.53;5035180;28;19932;-68
2022/07/23 03:19:25;;;;;;;;;;;;;;;23.55;72.80;100049.38;5028573;28;20390;-69
2022/07/23 03:21:51;;;;;;;;;;;;;;;23.53;73.56;100047.78;4997492;28;20032;-69
2022/07/23 03:24:17;;;;;;;;;;;;;;;23.46;74.01;100052.03;5015328;28;20041;-69
2022/07/23 03:26:43;;;;;;;;;;;;;;;23.46;73.95;100054.75;5015026;28;19930;-69
2022/07/23 03:29:08;;;;;;;;;;;;;;;23.46;73.43;100050.16;5021503;28;19945;-69
2022/07/23 03:31:33;;;;;;;;;;;;;;;23.49;70.44;100043.63;5035272;28;19931;-69
2022/07/23 03:33:59;;;;;;;;;;;;;;;23.52;70.27;100049.66;5023320;28;19927;-69
2022/07/23 03:36:24;;;;;;;;;;;;;;;23.55;71.00;100046.69;5014928;28;19941;-70
2022/07/23 03:38:50;;;;;;;;;;;;;;;23.60;72.51;100035.41;5014737;28;19935;-70
2022/07/23 03:41:16;;;;;;;;;;;;;;;23.63;70.58;100040.56;5014869;28;20379;-71
2022/07/23 03:43:41;;;;;;;;;;;;;;;23.66;70.48;100046.59;5014663;28;19962;-70
2022/07/23 03:46:06;;;;;;;;;;;;;;;23.69;69.50;100045.50;5015015;28;20326;-70
2022/07/23 03:48:32;;;;;;;;;;;;;;;23.73;70.81;100045.09;5017016;28;19930;-70
2022/07/23 03:50:57;;;;;;;;;;;;;;;23.71;70.73;100049.78;5014664;28;19935;-70
2022/07/23 03:53:22;;;;;;;;;;;;;;;23.69;71.22;100051.78;5014792;28;20301;-71
2022/07/23 03:55:50;;;;;;;;;;;;;;;23.64;71.71;100070.31;5014725;28;19983;-70
2022/07/23 03:58:16;;;;;;;;;;;;;;;23.55;72.09;100064.81;5014437;28;20437;-71
2022/07/23 04:00:41;;;;;;;;;;;;;;;23.52;72.09;100073.22;5029829;28;19976;-70
2022/07/23 04:03:06;;;;;;;;;;;;;;;23.56;72.18;100064.69;5014391;28;20291;-70
2022/07/23 04:05:31;;;;;;;;;;;;;;;23.58;72.52;100069.97;5014070;28;20021;-70
2022/07/23 04:07:57;;;;;;;;;;;;;;;23.59;74.47;100066.28;5014274;28;19931;-70
2022/07/23 04:10:22;;;;;;;;;;;;;;;23.57;73.92;100077.28;5014493;28;19938;-70
2022/07/23 04:12:47;;;;;;;;;;;;;;;23.55;74.01;100076.56;5013471;28;20348;-70
2022/07/23 04:15:13;;;;;;;;;;;;;;;23.53;73.80;100072.22;5014325;28;19934;-70
2022/07/23 04:17:38;;;;;;;;;;;;;;;23.53;73.73;100077.66;5018151;28;19930;-70
2022/07/23 04:20:03;;;;;;;;;;;;;;;23.52;73.70;100081.38;5033915;28;19957;-71
2022/07/23 04:22:29;;;;;;;;;;;;;;;23.57;74.11;100065.56;5033969;28;20408;-70
2022/07/23 04:24:54;;;;;;;;;;;;;;;23.57;73.97;100079.13;5033820;28;19965;-70
2022/07/23 04:27:19;;;;;;;;;;;;;;;23.57;74.08;100076.41;5024176;28;20426;-70
2022/07/23 04:29:44;;;;;;;;;;;;;;;23.59;75.25;100082.59;5025531;28;19934;-70
2022/07/23 04:32:10;;;;;;;;;;;;;;;23.61;75.24;100075.19;5033758;28;19993;-70
2022/07/23 04:34:35;;;;;;;;;;;;;;;23.62;74.46;100085.03;5033909;28;19992;-70
2022/07/23 04:37:00;;;;;;;;;;;;;;;23.65;74.00;100088.34;5031692;28;19948;-70
2022/07/23 04:39:26;;;;;;;;;;;;;;;23.69;76.33;100083.53;5015893;28;19945;-70
2022/07/23 04:41:51;;;;;;;;;;;;;;;23.64;77.55;100072.19;5013446;28;19930;-70
2022/07/23 04:44:16;;;;;;;;;;;;;;;23.61;78.42;100080.59;5031473;28;19964;-69
2022/07/23 04:46:41;;;;;;;;;;;;;;;23.62;78.17;100077.75;5031636;28;19919;-70
2022/07/23 04:49:07;;;;;;;;;;;;;;;23.66;79.06;100073.78;5031533;28;20344;-70
2022/07/23 04:51:32;;;;;;;;;;;;;;;23.75;79.94;100077.56;5031700;28;19983;-70
2022/07/23 04:53:57;;;;;;;;;;;;;;;23.79;78.10;100068.16;5031592;28;19938;-70
2022/07/23 04:56:23;;;;;;;;;;;;;;;23.91;78.41;100072.53;5032112;28;20413;-69
2022/07/23 04:58:48;;;;;;;;;;;;;;;23.95;79.74;100079.44;5033183;28;19932;-69
2022/07/23 05:01:13;;;;;;;;;;;;;;;24.01;76.81;100068.06;5033342;28;19929;-69
2022/07/23 05:03:39;;;;;;;;;;;;;;;24.09;76.27;100070.97;5033378;28;19931;-69
2022/07/23 05:06:04;;;;;;;;;;;;;;;24.13;75.21;100062.44;5032998;28;19958;-69
2022/07/23 05:08:29;;;;;;;;;;;;;;;24.14;72.28;100069.56;5032964;28;20021;-69
2022/07/23 05:10:54;;;;;;;;;;;;;;;24.15;72.93;100054.97;5033076;28;19942;-70
2022/07/23 05:13:20;;;;;;;;;;;;;;;24.16;72.84;100058.56;5014976;28;20397;-69
2022/07/23 05:15:45;;;;;;;;;;;;;;;24.20;73.51;100070.91;5032817;28;19925;-70
2022/07/23 05:18:11;;;;;;;;;;;;;;;24.20;73.62;100087.22;5032711;28;19935;-70
2022/07/23 05:20:36;;;;;;;;;;;;;;;24.21;74.04;100087.06;5014932;28;19958;-70
2022/07/23 05:23:02;;;;;;;;;;;;;;;24.23;74.75;100076.91;5030850;28;19938;-69
2022/07/23 05:25:27;;;;;;;;;;;;;;;24.25;76.29;100069.47;5012387;28;20500;-69
2022/07/23 05:27:52;;;;;;;;;;;;;;;24.19;77.86;100069.16;4995130;28;20018;-69
2022/07/23 05:30:18;;;;;;;;;;;;;;;24.08;79.02;100074.69;5028850;28;19933;-70
2022/07/23 05:32:43;;;;;;;;;;;;;;;24.08;78.79;100091.00;5020763;28;19941;-70
2022/07/23 05:35:08;;;;;;;;;;;;;;;24.03;78.40;100132.16;5012728;28;19934;-70
2022/07/23 05:37:34;;;;;;;;;;;;;;;23.91;79.44;100154.03;4994925;28;20358;-70
2022/07/23 05:40:00;;;;;;;;;;;;;;;23.74;81.31;100141.03;5012663;28;19925;-69
2022/07/23 05:42:26;;;;;;;;;;;;;;;23.60;84.51;100100.59;5012608;28;19931;-67
2022/07/23 05:44:51;;;;;;;;;;;;;;;23.44;88.92;100104.59;5011177;28;20414;-67
2022/07/23 05:47:17;;;;;;;;;;;;;;;23.34;93.61;100117.22;5011373;28;19945;-65
2022/07/23 05:49:42;;;;;;;;;;;;;;;23.16;95.83;100129.56;5011255;28;19934;-64
2022/07/23 05:52:08;;;;;;;;;;;;;;;23.02;97.89;100127.13;5011522;28;19930;-64
2022/07/23 05:54:36;;;;;;;;;;;;;;;22.90;96.27;100144.41;5019856;28;19941;-63
2022/07/23 05:57:02;;;;;;;;;;;;;;;22.89;98.21;100152.66;5011464;28;19932;-63
2022/07/23 05:59:27;;;;;;;;;;;;;;;22.86;100.00;100142.06;5020849;28;20037;-63
2022/07/23 06:01:52;;;;;;;;;;;;;;;22.81;100.00;100147.88;5031931;28;20294;-63
2022/07/23 06:04:18;;;;;;;;;;;;;;;22.85;100.00;100143.91;5031718;28;19992;-62
2022/07/23 06:06:43;;;;;;;;;;;;;;;22.96;100.00;100130.38;5031972;28;20311;-62
2022/07/23 06:09:10;;;;;;;;;;;;;;;23.01;100.00;100120.00;5031850;28;19933;-62
2022/07/23 06:11:36;;;;;;;;;;;;;;;23.04;100.00;100119.75;5027776;28;20586;-63
2022/07/23 06:14:01;;;;;;;;;;;;;;;23.07;100.00;100127.63;5011788;28;19939;-63
2022/07/23 06:16:26;;;;;;;;;;;;;;;23.11;100.00;100131.78;5012071;28;19924;-63
2022/07/23 06:18:51;;;;;;;;;;;;;;;23.12;100.00;100141.69;5011958;28;20020;-63
2022/07/23 06:21:17;;;;;;;;;;;;;;;23.07;100.00;100152.06;5012352;28;20337;-63
2022/07/23 06:23:42;;;;;;;;;;;;;;;23.01;100.00;100168.84;5011815;28;19933;-63
2022/07/23 06:26:07;;;;;;;;;;;;;;;22.95;100.00;100177.47;5011870;28;19968;-64
2022/07/23 06:28:32;;;;;;;;;;;;;;;22.88;100.00;100178.09;5031074;28;19938;-63
2022/07/23 06:30:58;;;;;;;;;;;;;;;22.81;100.00;100166.00;5031579;28;20389;-63
2022/07/23 06:33:23;;;;;;;;;;;;;;;22.78;100.00;100167.13;5031259;28;19934;-63
2022/07/23 06:35:48;;;;;;;;;;;;;;;22.75;100.00;100170.06;5030090;28;19937;-63
2022/07/23 06:38:16;;;;;;;;;;;;;;;22.71;100.00;100163.16;5027561;28;20367;-63
2022/07/23 06:40:42;;;;;;;;;;;;;;;22.72;100.00;100151.31;5010461;28;19948;-63
2022/07/23 06:43:07;;;;;;;;;;;;;;;22.81;100.00;100153.31;5017062;28;20036;-63
2022/07/23 06:45:34;;;;;;;;;;;;;;;22.87;100.00;100143.78;5029664;28;20636;-63
2022/07/23 06:48:02;;;;;;;;;;;;;;;22.92;100.00;100153.28;5031168;28;20333;-63
2022/07/23 06:50:27;;;;;;;;;;;;;;;22.96;100.00;100170.19;5031200;28;19938;-63
2022/07/23 06:52:52;;;;;;;;;;;;;;;22.90;100.00;100187.81;5031303;28;19937;-63
2022/07/23 06:55:17;;;;;;;;;;;;;;;22.84;100.00;100196.47;5031294;28;19938;-63
2022/07/23 06:57:43;;;;;;;;;;;;;;;22.82;100.00;100194.84;5031537;28;19935;-63
2022/07/23 07:00:08;;;;;;;;;;;;;;;22.79;100.00;100187.81;5031182;28;19933;-63
2022/07/23 07:02:34;;;;;;;;;;;;;;;22.84;100.00;100166.63;5031172;28;20334;-63
2022/07/23 07:04:59;;;;;;;;;;;;;;;22.93;100.00;100167.72;5031025;28;19948;-63
2022/07/23 07:07:24;;;;;;;;;;;;;;;22.98;100.00;100165.50;5031456;28;19950;-64
2022/07/23 07:09:49;;;;;;;;;;;;;;;23.02;100.00;100175.97;5030829;28;19979;-63
2022/07/23 07:12:15;;;;;;;;;;;;;;;23.07;100.00;100178.31;5031084;28;19938;-63
2022/07/23 07:14:40;;;;;;;;;;;;;;;23.14;100.00;100177.72;5031023;28;19938;-63
2022/07/23 07:17:05;;;;;;;;;;;;;;;23.23;100.00;100179.66;5031234;28;19930;-63
2022/07/23 07:19:31;;;;;;;;;;;;;;;23.39;100.00;100179.31;5030963;28;19935;-64
2022/07/23 07:21:56;;;;;;;;;;;;;;;23.55;100.00;100173.44;5031182;28;19937;-63
2022/07/23 07:24:21;;;;;;;;;;;;;;;23.70;100.00;100177.59;5028315;28;20086;-63
2022/07/23 07:26:46;;;;;;;;;;;;;;;23.77;100.00;100178.81;5011543;28;20004;-63
2022/07/23 07:29:12;;;;;;;;;;;;;;;23.87;100.00;100187.91;5018141;28;19936;-63
2022/07/23 07:31:37;;;;;;;;;;;;;;;24.01;100.00;100187.63;5025017;28;20301;-63
2022/07/23 07:34:03;;;;;;;;;;;;;;;24.03;100.00;100191.97;5011532;28;19942;-63
2022/07/23 07:36:28;;;;;;;;;;;;;;;24.19;100.00;100186.06;5011382;28;19932;-63
2022/07/23 07:38:53;;;;;;;;;;;;;;;24.43;100.00;100206.56;5010987;28;19998;-63
2022/07/23 07:41:22;;;;;;;;;;;;;;;24.92;100.00;100214.06;5010970;28;19938;-63
2022/07/23 07:43:48;;;;;;;;;;;;;;;25.63;94.75;100205.72;5010760;28;20374;-64
2022/07/23 07:46:13;;;;;;;;;;;;;;;25.94;84.29;100204.63;5021121;28;19968;-63
2022/07/23 07:48:38;;;;;;;;;;;;;;;26.16;82.77;100208.13;5033596;28;19938;-63
2022/07/23 07:51:04;;;;;;;;;;;;;;;26.12;82.43;100223.03;5034620;28;20266;-64
2022/07/23 07:53:29;;;;;;;;;;;;;;;26.46;80.68;100221.56;5034455;28;19933;-63
2022/07/23 07:55:54;;;;;;;;;;;;;;;26.91;78.46;100222.66;5034319;28;19963;-63
2022/07/23 07:58:20;;;;;;;;;;;;;;;27.22;75.41;100213.19;5034306;28;20045;-63
2022/07/23 08:00:45;;;;;;;;;;;;;;;27.61;71.74;100216.63;5034300;28;20028;-63
2022/07/23 08:03:10;;;;;;;;;;;;;;;27.84;70.05;100215.19;5018290;28;20388;-63
2022/07/23 08:05:36;;;;;;;;;;;;;;;28.38;69.44;100218.63;5014302;28;19952;-63
2022/07/23 08:08:01;;;;;;;;;;;;;;;28.76;67.08;100216.56;5014478;28;19935;-63
2022/07/23 08:10:27;;;;;;;;;;;;;;;28.85;63.68;100218.34;5014150;28;19933;-64
2022/07/23 08:12:53;;;;;;;;;;;;;;;29.29;62.84;100220.03;5013773;28;19930;-64
2022/07/23 08:15:20;;;;;;;;;;;;;;;29.62;60.57;100232.84;5012444;28;19944;-64
2022/07/23 08:17:45;;;;;;;;;;;;;;;29.97;61.52;100221.66;5014791;28;20106;-64
2022/07/23 08:20:12;;;;;;;;;;;;;;;30.14;59.86;100228.88;5012739;28;20029;-64
2022/07/23 08:22:43;;;;;;;;;;;;;;;29.98;58.96;100237.09;5013185;28;19931;-64
2022/07/23 08:25:08;;;;;;;;;;;;;;;29.89;60.94;100231.72;5012600;28;20381;-64
2022/07/23 08:27:34;;;;;;;;;;;;;;;29.35;62.25;100233.94;5023915;28;19943;-64
2022/07/23 08:29:59;;;;;;;;;;;;;;;29.15;63.93;100245.28;5033738;28;20381;-64
2022/07/23 08:32:24;;;;;;;;;;;;;;;29.14;63.28;100240.84;5033785;28;20004;-64
2022/07/23 08:34:49;;;;;;;;;;;;;;;29.52;63.08;100237.59;5033654;28;20032;-64
2022/07/23 08:37:15;;;;;;;;;;;;;;;30.19;58.72;100231.13;5019711;28;19936;-64
2022/07/23 08:39:40;;;;;;;;;;;;;;;30.92;59.18;100237.53;5013612;28;20470;-64
2022/07/23 08:42:06;;;;;;;;;;;;;;;31.52;57.67;100244.25;5013145;28;19962;-64
2022/07/23 08:44:31;;;;;;;;;;;;;;;31.35;55.22;100243.44;5019544;28;20003;-64
2022/07/23 08:46:56;;;;;;;;;;;;;;;31.12;54.88;100252.59;5031887;28;20369;-64
2022/07/23 08:49:22;;;;;;;;;;;;;;;31.39;55.45;100243.97;5031817;28;19938;-64
2022/07/23 08:51:48;;;;;;;;;;;;;;;31.09;54.50;100245.56;5031475;28;19930;-64
2022/07/23 08:54:13;;;;;;;;;;;;;;;31.64;54.58;100237.31;5031902;28;20305;-64
2022/07/23 08:56:38;;;;;;;;;;;;;;;32.05;52.83;100233.34;5031930;28;19983;-64
2022/07/23 08:59:04;;;;;;;;;;;;;;;32.46;54.56;100233.94;5032187;28;20375;-64
2022/07/23 09:01:29;;;;;;;;;;;;;;;32.73;50.98;100237.00;5031617;28;19929;-65
2022/07/23 09:03:54;;;;;;;;;;;;;;;33.02;51.52;100231.56;5031949;28;19913;-64
2022/07/23 09:06:19;;;;;;;;;;;;;;;33.03;49.94;100215.88;5031105;28;20310;-64
2022/07/23 09:08:46;;;;;;;;;;;;;;;33.28;49.45;100231.94;5029968;28;19973;-64
2022/07/23 09:11:20;;;;;;;;;;;;;;;33.69;48.22;100229.56;5030123;28;19937;-64
2022/07/23 09:13:47;;;;;;;;;;;;;;;33.05;47.86;100228.41;5030969;28;19930;-64
2022/07/23 09:16:14;;;;;;;;;;;;;;;32.28;48.00;100231.47;5031471;28;19931;-64
2022/07/23 09:18:39;;;;;;;;;;;;;;;32.40;49.94;100230.03;5031473;28;19935;-64
2022/07/23 09:21:09;;;;;;;;;;;;;;;32.35;49.89;100232.44;5031085;28;19934;-64
2022/07/23 09:23:54;;;;;;;;;;;;;;;32.37;49.78;100240.53;5016878;28;20316;-64
2022/07/23 09:26:31;;;;;;;;;;;;;;;32.71;47.90;100232.69;5012374;28;19985;-64
2022/07/23 09:29:05;;;;;;;;;;;;;;;32.87;48.86;100238.91;5018603;28;20446;-63
2022/07/23 09:31:32;;;;;;;;;;;;;;;32.74;47.77;100235.94;5030567;28;20197;-64
2022/07/23 09:34:08;;;;;;;;;;;;;;;32.87;45.51;100233.41;5030713;28;19949;-63
2022/07/23 09:36:33;;;;;;;;;;;;;;;32.72;44.04;100235.25;5030324;28;20028;-64
2022/07/23 09:38:59;;;;;;;;;;;;;;;32.74;45.18;100238.69;5028986;28;20041;-64
2022/07/23 09:41:24;;;;;;;;;;;;;;;33.14;45.80;100241.09;5030438;28;19941;-64
2022/07/23 09:43:54;;;;;;;;;;;;;;;33.44;45.11;100224.56;5030437;28;19929;-64
2022/07/23 09:46:26;;;;;;;;;;;;;;;33.17;45.44;100226.91;5030395;28;20412;-64
2022/07/23 09:48:56;;;;;;;;;;;;;;;32.94;47.55;100234.41;5030883;28;20358;-65
2022/07/23 09:53:52;;;;;;;;;;;;;;;32.79;46.94;100232.63;5032003;28;20019;-65
2022/07/23 09:56:20;;;;;;;;;;;;;;;32.79;46.40;100224.34;5016845;28;19934;-65
2022/07/23 09:58:49;;;;;;;;;;;;;;;33.12;47.73;100237.66;5015574;28;19940;-65
2022/07/23 10:01:15;;;;;;;;;;;;;;;33.40;44.53;100229.56;5031856;28;19946;-65
2022/07/23 10:03:41;;;;;;;;;;;;;;;33.15;46.52;100236.41;5028592;28;19934;-65
2022/07/23 10:06:08;;;;;;;;;;;;;;;33.18;44.87;100225.84;5012056;28;19978;-65
2022/07/23 10:08:33;;;;;;;;;;;;;;;33.20;43.19;100234.81;5012355;28;19930;-65
2022/07/23 10:11:00;;;;;;;;;;;;;;;33.27;43.00;100235.75;5011505;28;20337;-65
2022/07/23 10:15:54;;;;;;;;;;;;;;;33.66;43.76;100223.59;5012209;28;19942;-65
2022/07/23 10:18:20;;;;;;;;;;;;;;;33.82;45.34;100228.91;5012492;28;19938;-63
2022/07/23 10:20:47;;;;;;;;;;;;;;;33.88;43.72;100230.88;5012020;28;19932;-64
2022/07/23 10:23:12;;;;;;;;;;;;;;;33.87;43.38;100221.72;5010065;28;19941;-64
2022/07/23 10:25:49;;;;;;;;;;;;;;;33.77;43.57;100232.25;5009749;28;20053;-64
2022/07/23 10:28:22;;;;;;;;;;;;;;;33.70;44.07;100236.81;5027153;28;20474;-64
2022/07/23 10:31:08;;;;;;;;;;;;;;;34.00;43.76;100232.13;5010032;28;19935;-64
2022/07/23 10:33:50;;;;;;;;;;;;;;;34.13;40.56;100227.59;5010342;28;19939;-64
2022/07/23 10:36:15;;;;;;;;;;;;;;;34.27;43.53;100225.81;5011700;28;19962;-63
2022/07/23 10:39:12;;;;;;;;;;;;;;;34.37;42.83;100229.09;5011727;28;19933;-64
2022/07/23 10:41:41;;;;;;;;;;;;;;;34.51;40.66;100219.94;5003035;28;19929;-64
2022/07/23 10:44:07;;;;;;;;;;;;;;;34.74;39.00;100230.78;5019053;28;19963;-64
2022/07/23 10:46:51;;;;;;;;;;;;;;;34.76;36.66;100229.53;5027395;28;20002;-64
2022/07/23 10:49:30;;;;;;;;;;;;;;;34.06;37.96;100229.44;5009821;28;20375;-64
2022/07/23 10:52:15;;;;;;;;;;;;;;;34.06;37.80;100220.28;5009777;28;20012;-63
2022/07/23 10:54:45;;;;;;;;;;;;;;;34.38;39.65;100230.84;5009856;28;19939;-63
2022/07/23 10:57:12;;;;;;;;;;;;;;;34.58;37.67;100234.69;5009561;28;19927;-65
2022/07/23 11:00:00;;;;;;;;;;;;;;;34.32;39.62;100228.84;5021535;28;19979;-65
2022/07/23 11:02:30;;;;;;;;;;;;;;;35.02;41.84;100232.53;5022993;28;20426;-65
2022/07/23 11:04:59;;;;;;;;;;;;;;;35.33;38.15;100230.19;5030997;28;20017;-65
2022/07/23 11:07:24;;;;;;;;;;;;;;;35.76;38.23;100233.63;5030868;28;20026;-65
2022/07/23 11:09:49;;;;;;;;;;;;;;;35.91;39.15;100230.75;5031360;28;19929;-65
2022/07/23 11:12:21;;;;;;;;;;;;;;;35.92;38.04;100238.84;5030987;28;20294;-65
2022/07/23 11:15:04;;;;;;;;;;;;;;;36.11;36.21;100242.75;5031223;28;19938;-65
2022/07/23 11:17:56;;;;;;;;;;;;;;;35.78;37.32;100237.88;5031017;28;19956;-65
2022/07/23 11:20:22;;;;;;;;;;;;;;;35.92;37.37;100235.19;5030694;28;19988;-65
2022/07/23 11:22:49;;;;;;;;;;;;;;;35.85;37.46;100226.88;5034341;28;20001;-65
2022/07/23 11:25:20;;;;;;;;;;;;;;;34.85;37.46;100220.03;5035199;28;19948;-65
2022/07/23 11:27:46;;;;;;;;;;;;;;;34.80;40.59;100217.00;5034822;28;19949;-65
2022/07/23 11:30:27;;;;;;;;;;;;;;;35.09;40.36;100224.28;5030588;28;20398;-65
2022/07/23 11:32:53;;;;;;;;;;;;;;;35.02;38.62;100217.84;5014902;28;19942;-65
2022/07/23 11:35:22;;;;;;;;;;;;;;;34.84;39.66;100212.78;5015112;28;19959;-65
2022/07/23 11:37:47;;;;;;;;;;;;;;;34.89;39.04;100223.25;5017359;28;20364;-65
2022/07/23 11:40:16;;;;;;;;;;;;;;;35.21;37.26;100217.97;5015110;28;19933;-65
2022/07/23 11:42:55;;;;;;;;;;;;;;;35.23;37.19;100224.16;5014592;28;19937;-65
2022/07/23 11:45:21;;;;;;;;;;;;;;;35.31;39.26;100209.28;4995310;28;19959;-65
2022/07/23 11:47:46;;;;;;;;;;;;;;;35.49;37.54;100210.50;4998134;28;20310;-66
2022/07/23 11:50:11;;;;;;;;;;;;;;;35.51;40.11;100208.41;5006287;28;19939;-65
2022/07/23 11:52:38;;;;;;;;;;;;;;;35.57;36.89;100215.88;5011390;28;19947;-65
2022/07/23 11:55:05;;;;;;;;;;;;;;;35.30;38.46;100221.44;5014708;28;20027;-65
2022/07/23 11:57:34;;;;;;;;;;;;;;;35.19;39.53;100216.47;5014362;28;20305;-65
2022/07/23 12:00:02;;;;;;;;;;;;;;;34.95;40.68;100211.41;5014481;28;20359;-65
2022/07/23 12:02:27;;;;;;;;;;;;;;;34.99;39.44;100207.19;5014991;28;20448;-65
2022/07/23 12:04:53;;;;;;;;;;;;;;;35.05;37.77;100210.00;5005711;28;19922;-65
2022/07/23 12:07:30;;;;;;;;;;;;;;;35.44;39.69;100207.50;4994846;28;19952;-65
2022/07/23 12:09:57;;;;;;;;;;;;;;;35.91;37.98;100208.59;4994464;28;19935;-65
2022/07/23 12:12:22;;;;;;;;;;;;;;;35.75;36.69;100205.09;4994746;28;19930;-65
2022/07/23 12:14:51;;;;;;;;;;;;;;;36.18;37.72;100207.59;4994799;28;20013;-65
2022/07/23 12:17:17;;;;;;;;;;;;;;;36.43;36.54;100205.97;4994578;28;19934;-65
2022/07/23 12:19:43;;;;;;;;;;;;;;;36.52;35.99;100208.34;4996963;28;19929;-66
2022/07/23 12:22:11;;;;;;;;;;;;;;;36.94;35.24;100201.50;4994638;28;19936;-65
2022/07/23 12:24:55;;;;;;;;;;;;;;;37.11;33.58;100194.44;4994266;28;20271;-65
2022/07/23 12:27:21;;;;;;;;;;;;;;;36.85;35.91;100194.50;5003836;28;19934;-65
2022/07/23 12:29:46;;;;;;;;;;;;;;;37.02;33.42;100194.91;5013849;28;19985;-65
2022/07/23 12:32:19;;;;;;;;;;;;;;;37.07;34.81;100195.94;5014044;28;19934;-66
2022/07/23 12:34:45;;;;;;;;;;;;;;;37.04;35.77;100196.38;5013184;28;19985;-65
2022/07/23 12:37:27;;;;;;;;;;;;;;;37.14;35.06;100191.25;5013742;28;20030;-65